createdAt,value
2023-04-07T00:02:02.806Z,60.66
2023-04-07T00:04:29.579Z,60.91
2023-04-07T00:06:56.232Z,61.41
2023-04-07T00:09:22.958Z,60.87
2023-04-07T00:11:49.600Z,61.15
2023-04-07T00:14:16.206Z,60.57
2023-04-07T00:16:42.937Z,60.45
2023-04-07T00:19:09.473Z,60.82
2023-04-07T00:21:36.165Z,59.71
2023-04-07T00:24:02.894Z,60.00
2023-04-07T00:26:31.654Z,59.51
2023-04-07T00:28:59.128Z,59.28
2023-04-07T00:31:26.013Z,60.03
2023-04-07T00:33:52.992Z,60.50
2023-04-07T00:36:19.941Z,60.12
2023-04-07T00:38:46.533Z,60.24
2023-04-07T00:41:13.325Z,60.31
2023-04-07T00:43:40.065Z,59.18
2023-04-07T00:46:06.868Z,59.10
2023-04-07T00:48:33.730Z,58.41
2023-04-07T00:51:00.357Z,57.83
2023-04-07T00:53:26.906Z,58.41
2023-04-07T00:55:53.712Z,58.95
2023-04-07T00:58:20.500Z,57.64
2023-04-07T01:00:59.301Z,57.56
2023-04-07T01:03:33.910Z,57.68
2023-04-07T01:06:06.871Z,57.99
2023-04-07T01:08:38.534Z,59.26
2023-04-07T01:11:05.362Z,58.90
2023-04-07T01:13:38.719Z,60.12
2023-04-07T01:16:12.105Z,60.70
2023-04-07T01:18:40.466Z,60.90
2023-04-07T01:21:14.018Z,61.01
2023-04-07T01:23:55.615Z,60.62
2023-04-07T01:26:27.917Z,61.22
2023-04-07T01:29:07.566Z,62.12
2023-04-07T01:31:37.316Z,62.80
2023-04-07T01:34:04.357Z,62.67
2023-04-07T01:36:33.735Z,63.38
2023-04-07T01:39:01.352Z,64.18
2023-04-07T01:41:30.033Z,63.78
2023-04-07T01:43:57.704Z,62.48
2023-04-07T01:46:24.893Z,63.36
2023-04-07T01:48:52.485Z,63.70
2023-04-07T01:51:21.789Z,65.12
2023-04-07T01:53:49.703Z,64.10
2023-04-07T01:56:16.874Z,65.15
2023-04-07T01:58:43.463Z,64.40
2023-04-07T02:01:10.314Z,64.72
2023-04-07T02:03:56.182Z,65.26
2023-04-07T02:06:32.185Z,65.20
2023-04-07T02:09:07.933Z,64.93
2023-04-07T02:11:36.201Z,65.19
2023-04-07T02:14:06.437Z,65.15
2023-04-07T02:16:33.516Z,66.47
2023-04-07T02:19:00.254Z,66.16
2023-04-07T02:21:27.698Z,66.59
2023-04-07T02:23:54.358Z,66.77
2023-04-07T02:26:21.497Z,65.93
2023-04-07T02:28:48.126Z,66.36
2023-04-07T02:31:14.871Z,66.25
2023-04-07T02:33:41.508Z,65.46
2023-04-07T02:36:08.178Z,64.95
2023-04-07T02:38:34.741Z,65.98
2023-04-07T02:41:01.453Z,66.66
2023-04-07T02:43:27.975Z,67.00
2023-04-07T02:45:55.177Z,67.27
2023-04-07T02:48:21.792Z,66.91
2023-04-07T02:50:48.365Z,66.24
2023-04-07T02:53:14.983Z,66.84
2023-04-07T02:55:41.895Z,66.92
2023-04-07T02:58:08.474Z,66.52
2023-04-07T03:00:35.066Z,66.40
2023-04-07T03:03:02.017Z,65.92
2023-04-07T03:05:28.737Z,65.79
2023-04-07T03:07:55.392Z,66.82
2023-04-07T03:10:22.002Z,67.68
2023-04-07T03:12:48.948Z,66.98
2023-04-07T03:15:17.092Z,66.18
2023-04-07T03:17:45.926Z,67.33
2023-04-07T03:20:12.569Z,66.96
2023-04-07T03:22:39.162Z,66.50
2023-04-07T03:25:05.948Z,67.02
2023-04-07T03:27:32.490Z,67.81
2023-04-07T03:29:59.115Z,67.42
2023-04-07T03:32:26.018Z,67.23
2023-04-07T03:34:52.762Z,68.06
2023-04-07T03:37:19.338Z,68.79
2023-04-07T03:39:45.905Z,68.66
2023-04-07T03:42:13.008Z,68.25
2023-04-07T03:44:39.606Z,67.94
2023-04-07T03:47:06.181Z,67.36
2023-04-07T03:49:33.355Z,66.83
2023-04-07T03:51:59.868Z,67.73
2023-04-07T03:54:26.698Z,68.00
2023-04-07T03:56:53.344Z,68.67
2023-04-07T03:59:19.890Z,68.66
2023-04-07T04:01:46.497Z,68.00
2023-04-07T04:04:13.232Z,68.16
2023-04-07T04:06:39.831Z,68.91
2023-04-07T04:09:06.453Z,68.26
2023-04-07T04:11:33.006Z,67.87
2023-04-07T04:13:59.516Z,68.03
2023-04-07T04:16:26.301Z,68.55
2023-04-07T04:18:52.961Z,72.20
2023-04-07T04:21:19.532Z,71.11
2023-04-07T04:23:46.020Z,69.72
2023-04-07T04:26:12.732Z,69.70
2023-04-07T04:28:39.329Z,70.61
2023-04-07T04:31:06.104Z,70.36
2023-04-07T04:33:32.961Z,69.76
2023-04-07T04:35:59.622Z,69.50
2023-04-07T04:38:26.205Z,70.12
2023-04-07T04:40:52.778Z,69.68
2023-04-07T04:43:19.332Z,69.71
2023-04-07T04:45:46.211Z,69.93
2023-04-07T04:48:12.755Z,70.99
2023-04-07T04:50:39.274Z,70.21
2023-04-07T04:53:05.792Z,70.27
2023-04-07T04:55:32.323Z,70.22
2023-04-07T04:57:59.058Z,70.38
2023-04-07T05:00:25.586Z,70.20
2023-04-07T05:02:52.238Z,70.36
2023-04-07T05:05:19.185Z,69.89
2023-04-07T05:07:46.021Z,69.26
2023-04-07T05:10:12.835Z,68.97
2023-04-07T05:12:39.340Z,70.08
2023-04-07T05:15:06.661Z,71.16
2023-04-07T05:17:33.268Z,70.23
2023-04-07T05:19:59.901Z,71.15
2023-04-07T05:22:26.504Z,69.50
2023-04-07T05:24:53.083Z,69.04
2023-04-07T05:27:19.605Z,69.41
2023-04-07T05:29:46.137Z,70.42
2023-04-07T05:32:12.650Z,70.14
2023-04-07T05:34:40.122Z,72.27
2023-04-07T05:37:06.727Z,71.02
2023-04-07T05:39:33.273Z,69.70
2023-04-07T05:41:59.800Z,67.50
2023-04-07T05:44:26.341Z,69.73
2023-04-07T05:46:52.965Z,71.68
2023-04-07T05:49:20.467Z,71.26
2023-04-07T05:51:48.730Z,71.88
2023-04-07T05:54:16.037Z,73.26
2023-04-07T05:56:42.723Z,75.19
2023-04-07T05:59:09.988Z,76.55
2023-04-07T06:01:36.603Z,77.18
2023-04-07T06:04:04.284Z,77.71
2023-04-07T06:06:31.380Z,77.83
2023-04-07T06:08:58.033Z,77.66
2023-04-07T06:11:27.406Z,78.31
2023-04-07T06:13:54.201Z,80.68
2023-04-07T06:16:20.827Z,79.46
2023-04-07T06:18:47.657Z,79.86
2023-04-07T06:21:14.232Z,79.36
2023-04-07T06:23:40.774Z,79.47
2023-04-07T06:26:11.321Z,80.16
2023-04-07T06:28:38.117Z,80.41
2023-04-07T06:31:05.214Z,80.34
2023-04-07T06:33:31.780Z,79.84
2023-04-07T06:35:58.480Z,79.79
2023-04-07T06:38:25.286Z,79.99
2023-04-07T06:40:52.134Z,79.96
2023-04-07T06:43:18.722Z,80.28
2023-04-07T06:45:45.589Z,75.76
2023-04-07T06:48:12.169Z,77.15
2023-04-07T06:50:38.768Z,77.55
2023-04-07T06:53:06.036Z,76.29
2023-04-07T06:55:32.676Z,78.19
2023-04-07T06:57:59.252Z,79.03
2023-04-07T07:00:27.088Z,75.25
2023-04-07T07:02:53.777Z,76.83
2023-04-07T07:05:20.580Z,78.11
2023-04-07T07:07:47.205Z,79.70
2023-04-07T07:10:13.825Z,79.93
2023-04-07T07:12:40.351Z,79.02
2023-04-07T07:15:07.947Z,79.30
2023-04-07T07:17:34.663Z,78.45
2023-04-07T07:20:01.283Z,77.61
2023-04-07T07:22:27.919Z,78.27
2023-04-07T07:24:54.607Z,78.40
2023-04-07T07:27:21.203Z,78.52
2023-04-07T07:29:47.724Z,78.97
2023-04-07T07:32:14.230Z,76.84
2023-04-07T07:34:40.959Z,77.12
2023-04-07T07:37:07.640Z,77.16
2023-04-07T07:39:34.212Z,75.35
2023-04-07T07:42:01.491Z,74.30
2023-04-07T07:44:28.471Z,75.59
2023-04-07T07:46:55.689Z,73.96
2023-04-07T07:49:22.422Z,76.94
2023-04-07T07:51:49.006Z,74.90
2023-04-07T07:54:15.703Z,73.91
2023-04-07T07:56:42.322Z,76.11
2023-04-07T07:59:08.859Z,75.33
2023-04-07T08:01:35.526Z,74.34
2023-04-07T08:04:02.433Z,74.96
2023-04-07T08:06:29.376Z,74.88
2023-04-07T08:08:56.038Z,74.75
2023-04-07T08:11:23.384Z,73.47
2023-04-07T08:13:50.042Z,74.97
2023-04-07T08:16:16.989Z,75.83
2023-04-07T08:18:43.781Z,75.49
2023-04-07T08:21:10.363Z,76.16
2023-04-07T08:23:37.119Z,75.48
2023-04-07T08:26:03.857Z,71.70
2023-04-07T08:28:30.581Z,69.14
2023-04-07T08:30:57.127Z,68.50
2023-04-07T08:33:23.853Z,70.39
2023-04-07T08:35:50.873Z,70.43
2023-04-07T08:38:17.753Z,72.39
2023-04-07T08:40:44.414Z,70.20
2023-04-07T08:43:12.876Z,69.71
2023-04-07T08:45:42.261Z,68.50
2023-04-07T08:48:17.783Z,67.93
2023-04-07T08:50:46.296Z,68.69
2023-04-07T08:53:17.068Z,73.50
2023-04-07T08:55:43.704Z,74.18
2023-04-07T08:58:13.690Z,75.67
2023-04-07T09:00:45.814Z,74.54
2023-04-07T09:03:13.116Z,73.99
2023-04-07T09:05:40.589Z,72.69
2023-04-07T09:08:07.133Z,73.31
2023-04-07T09:10:33.677Z,70.95
2023-04-07T09:13:00.313Z,67.88
2023-04-07T09:15:31.489Z,67.49
2023-04-07T09:17:59.360Z,68.21
2023-04-07T09:20:25.975Z,70.39
2023-04-07T09:22:52.743Z,68.08
2023-04-07T09:25:28.202Z,70.49
2023-04-07T09:28:05.301Z,70.41
2023-04-07T09:30:33.637Z,66.97
2023-04-07T09:33:01.661Z,69.48
2023-04-07T09:35:29.000Z,66.37
2023-04-07T09:38:06.481Z,64.41
2023-04-07T09:40:33.243Z,61.85
2023-04-07T09:43:00.584Z,63.82
2023-04-07T09:45:34.615Z,60.63
2023-04-07T09:48:07.855Z,63.88
2023-04-07T09:50:49.407Z,67.46
2023-04-07T09:53:17.258Z,64.25
2023-04-07T09:55:44.244Z,65.70
2023-04-07T09:58:17.000Z,63.76
2023-04-07T10:00:44.489Z,64.42
2023-04-07T10:03:11.313Z,65.63
2023-04-07T10:05:38.945Z,65.93
2023-04-07T10:08:06.686Z,63.26
2023-04-07T10:10:35.516Z,65.35
2023-04-07T10:13:05.198Z,67.87
2023-04-07T10:15:31.870Z,65.46
2023-04-07T10:17:59.768Z,64.83
2023-04-07T10:20:28.213Z,68.11
2023-04-07T10:22:59.276Z,68.26
2023-04-07T10:25:26.750Z,70.14
2023-04-07T10:27:59.091Z,69.99
2023-04-07T10:30:28.986Z,68.73
2023-04-07T10:32:55.970Z,68.23
2023-04-07T10:35:23.717Z,69.46
2023-04-07T10:38:08.793Z,68.06
2023-04-07T10:40:36.474Z,71.10
2023-04-07T10:43:03.823Z,74.07
2023-04-07T10:45:48.837Z,72.64
2023-04-07T10:48:17.464Z,74.33
2023-04-07T10:50:45.848Z,70.72
2023-04-07T10:53:15.338Z,71.65
2023-04-07T10:55:46.363Z,72.16
2023-04-07T10:58:14.498Z,70.55
2023-04-07T11:00:41.959Z,70.67
2023-04-07T11:03:15.039Z,70.26
2023-04-07T11:05:42.284Z,69.30
2023-04-07T11:08:09.147Z,67.52
2023-04-07T11:10:36.210Z,68.38
2023-04-07T11:13:06.362Z,67.94
2023-04-07T11:15:34.296Z,66.13
2023-04-07T11:18:11.730Z,66.44
2023-04-07T11:20:57.430Z,70.92
2023-04-07T11:23:25.503Z,69.64
2023-04-07T11:26:02.740Z,70.35
2023-04-07T11:28:30.934Z,67.00
2023-04-07T11:30:58.645Z,64.14
2023-04-07T11:33:31.507Z,65.12
2023-04-07T11:36:02.398Z,65.22
2023-04-07T11:38:34.971Z,62.80
2023-04-07T11:41:12.005Z,57.07
2023-04-07T11:43:41.783Z,57.05
2023-04-07T11:46:16.261Z,52.94
2023-04-07T11:48:45.291Z,57.67
2023-04-07T11:51:19.601Z,56.70
2023-04-07T11:53:47.798Z,62.35
2023-04-07T11:56:17.610Z,59.33
2023-04-07T11:58:55.711Z,60.33
2023-04-07T12:01:24.813Z,57.81
2023-04-07T12:04:13.527Z,62.51
2023-04-07T12:06:41.937Z,60.09
2023-04-07T12:09:30.513Z,61.48
2023-04-07T12:11:57.911Z,59.82
2023-04-07T12:14:25.760Z,60.88
2023-04-07T12:16:53.359Z,60.53
2023-04-07T12:19:20.073Z,60.06
2023-04-07T12:21:46.609Z,60.33
2023-04-07T12:24:13.186Z,58.37
2023-04-07T12:26:39.858Z,52.33
2023-04-07T12:29:07.096Z,58.06
2023-04-07T12:31:34.534Z,56.70
2023-04-07T12:34:01.496Z,54.83
2023-04-07T12:36:28.149Z,54.38
2023-04-07T12:38:54.920Z,57.28
2023-04-07T12:41:21.873Z,58.63
2023-04-07T12:43:48.790Z,56.66
2023-04-07T12:46:15.842Z,54.43
2023-04-07T12:48:42.780Z,57.02
2023-04-07T12:51:09.553Z,53.46
2023-04-07T12:53:36.295Z,53.60
2023-04-07T12:56:02.876Z,52.11
2023-04-07T12:58:29.665Z,54.14
2023-04-07T13:00:56.831Z,53.92
2023-04-07T13:03:23.668Z,54.97
2023-04-07T13:05:50.442Z,51.01
2023-04-07T13:08:17.001Z,53.12
2023-04-07T13:10:43.512Z,51.34
2023-04-07T13:13:10.310Z,46.59
2023-04-07T13:15:36.963Z,50.59
2023-04-07T13:18:03.851Z,48.54
2023-04-07T13:20:30.582Z,47.49
2023-04-07T13:23:07.795Z,48.69
2023-04-07T13:25:36.593Z,46.87
2023-04-07T13:28:03.460Z,48.63
2023-04-07T13:30:30.153Z,51.58
2023-04-07T13:32:57.224Z,53.17
2023-04-07T13:35:23.950Z,51.60
2023-04-07T13:37:50.568Z,51.27
2023-04-07T13:40:17.141Z,51.84
2023-04-07T13:42:43.703Z,51.01
2023-04-07T13:45:10.798Z,49.43
2023-04-07T13:47:37.479Z,49.26
2023-04-07T13:50:04.643Z,48.42
2023-04-07T13:52:32.941Z,52.31
2023-04-07T13:54:59.791Z,50.03
2023-04-07T13:57:26.329Z,51.36
2023-04-07T13:59:53.480Z,50.06
2023-04-07T14:02:21.234Z,50.26
2023-04-07T14:04:47.945Z,48.67
2023-04-07T14:07:14.535Z,51.95
2023-04-07T14:09:42.781Z,52.60
2023-04-07T14:12:09.544Z,52.57
2023-04-07T14:14:37.668Z,51.51
2023-04-07T14:17:04.522Z,51.74
2023-04-07T14:19:31.981Z,47.34
2023-04-07T14:21:58.749Z,47.53
2023-04-07T14:24:25.381Z,48.19
2023-04-07T14:26:54.587Z,48.22
2023-04-07T14:29:22.236Z,47.89
2023-04-07T14:31:48.751Z,48.76
2023-04-07T14:34:15.604Z,49.08
2023-04-07T14:36:42.865Z,48.00
2023-04-07T14:39:09.372Z,49.50
2023-04-07T14:41:35.892Z,49.56
2023-04-07T14:44:02.897Z,48.10
2023-04-07T14:46:29.440Z,47.97
2023-04-07T14:48:58.353Z,50.04
2023-04-07T14:51:25.019Z,49.35
2023-04-07T14:53:55.913Z,49.25
2023-04-07T14:56:22.820Z,48.21
2023-04-07T14:58:49.424Z,48.76
2023-04-07T15:01:16.079Z,48.90
2023-04-07T15:03:43.431Z,46.41
2023-04-07T15:06:11.897Z,44.25
2023-04-07T15:08:38.668Z,43.92
2023-04-07T15:11:08.571Z,44.87
2023-04-07T15:13:36.282Z,46.51
2023-04-07T15:16:13.792Z,47.70
2023-04-07T15:18:42.458Z,46.85
2023-04-07T15:21:09.801Z,48.13
2023-04-07T15:23:41.791Z,46.93
2023-04-07T15:26:09.816Z,44.97
2023-04-07T15:28:36.360Z,44.92
2023-04-07T15:31:03.805Z,47.05
2023-04-07T15:33:30.412Z,46.60
2023-04-07T15:35:57.295Z,44.92
2023-04-07T15:38:23.800Z,45.10
2023-04-07T15:40:50.396Z,47.08
2023-04-07T15:43:16.987Z,45.73
2023-04-07T15:45:44.521Z,47.29
2023-04-07T15:48:12.369Z,45.82
2023-04-07T15:50:39.216Z,44.34
2023-04-07T15:53:06.474Z,44.68
2023-04-07T15:55:37.012Z,43.66
2023-04-07T15:58:04.310Z,45.69
2023-04-07T16:00:34.031Z,45.32
2023-04-07T16:03:03.747Z,45.43
2023-04-07T16:05:30.689Z,46.69
2023-04-07T16:07:57.231Z,45.60
2023-04-07T16:10:24.361Z,47.00
2023-04-07T16:12:50.873Z,49.43
2023-04-07T16:15:32.323Z,50.34
2023-04-07T16:18:07.595Z,49.96
2023-04-07T16:20:34.299Z,48.33
2023-04-07T16:23:01.025Z,50.60
2023-04-07T16:25:27.849Z,52.78
2023-04-07T16:27:54.446Z,48.87
2023-04-07T16:30:21.070Z,46.40
2023-04-07T16:32:47.683Z,45.61
2023-04-07T16:35:15.382Z,44.88
2023-04-07T16:37:42.711Z,43.40
2023-04-07T16:40:10.493Z,46.57
2023-04-07T16:42:37.226Z,46.79
2023-04-07T16:45:04.503Z,49.24
2023-04-07T16:47:32.380Z,49.59
2023-04-07T16:49:59.428Z,51.26
2023-04-07T16:52:26.632Z,52.33
2023-04-07T16:54:53.339Z,55.00
2023-04-07T16:57:19.857Z,55.55
2023-04-07T16:59:47.234Z,55.60
2023-04-07T17:02:16.526Z,54.97
2023-04-07T17:04:44.311Z,58.23
2023-04-07T17:07:11.777Z,59.46
2023-04-07T17:09:38.956Z,59.74
2023-04-07T17:12:06.268Z,59.58
2023-04-07T17:14:33.764Z,59.67
2023-04-07T17:17:01.149Z,60.44
2023-04-07T17:19:27.987Z,61.96
2023-04-07T17:21:54.526Z,61.40
2023-04-07T17:24:21.112Z,60.47
2023-04-07T17:26:48.008Z,61.11
2023-04-07T17:29:15.748Z,61.96
2023-04-07T17:31:42.488Z,61.71
2023-04-07T17:34:09.410Z,61.02
2023-04-07T17:36:37.681Z,62.16
2023-04-07T17:39:05.085Z,62.65
2023-04-07T17:41:34.507Z,62.28
2023-04-07T17:44:01.665Z,62.98
2023-04-07T17:46:28.532Z,62.99
2023-04-07T17:48:57.600Z,62.35
2023-04-07T17:51:25.214Z,62.50
2023-04-07T17:53:53.540Z,64.61
2023-04-07T17:56:20.612Z,65.59
2023-04-07T17:58:47.583Z,65.70
2023-04-07T18:01:14.244Z,66.19
2023-04-07T18:03:41.069Z,65.33
2023-04-07T18:06:08.550Z,65.92
2023-04-07T18:08:35.583Z,65.36
2023-04-07T18:11:02.305Z,66.17
2023-04-07T18:13:28.931Z,66.45
2023-04-07T18:15:55.450Z,69.93
2023-04-07T18:18:22.179Z,68.41
2023-04-07T18:20:49.696Z,67.90
2023-04-07T18:23:16.386Z,68.42
2023-04-07T18:25:43.113Z,68.02
2023-04-07T18:28:11.796Z,68.40
2023-04-07T18:30:39.201Z,67.73
2023-04-07T18:33:05.918Z,68.83
2023-04-07T18:35:32.862Z,68.92
2023-04-07T18:37:59.468Z,69.17
2023-04-07T18:40:26.315Z,69.27
2023-04-07T18:42:53.038Z,69.33
2023-04-07T18:45:19.627Z,69.18
2023-04-07T18:47:46.475Z,69.38
2023-04-07T18:50:13.130Z,69.43
2023-04-07T18:52:39.936Z,69.62
2023-04-07T18:55:08.132Z,69.37
2023-04-07T18:57:34.873Z,69.16
2023-04-07T19:00:01.486Z,68.44
2023-04-07T19:02:28.221Z,68.67
2023-04-07T19:04:54.982Z,69.21
2023-04-07T19:07:21.548Z,69.20
2023-04-07T19:09:51.281Z,70.12
2023-04-07T19:12:17.909Z,71.94
2023-04-07T19:14:44.675Z,72.07
2023-04-07T19:17:11.838Z,72.37
2023-04-07T19:19:38.460Z,71.68
2023-04-07T19:22:05.132Z,70.92
2023-04-07T19:24:31.672Z,71.17
2023-04-07T19:26:58.455Z,72.25
2023-04-07T19:29:25.008Z,71.87
2023-04-07T19:31:53.070Z,71.59
2023-04-07T19:34:19.853Z,72.93
2023-04-07T19:36:46.396Z,71.85
2023-04-07T19:39:12.945Z,72.07
2023-04-07T19:41:39.560Z,73.41
2023-04-07T19:44:06.127Z,72.62
2023-04-07T19:46:33.717Z,72.95
2023-04-07T19:49:00.411Z,72.92
2023-04-07T19:51:27.659Z,73.56
2023-04-07T19:53:54.302Z,72.22
2023-04-07T19:56:21.502Z,71.14
2023-04-07T19:58:48.316Z,71.37
2023-04-07T20:01:18.550Z,70.77
2023-04-07T20:03:46.322Z,72.78
2023-04-07T20:06:14.688Z,72.23
2023-04-07T20:08:41.986Z,71.65
2023-04-07T20:11:11.558Z,72.47
2023-04-07T20:13:39.431Z,72.48
2023-04-07T20:16:06.456Z,73.74
2023-04-07T20:18:33.469Z,71.58
2023-04-07T20:21:01.116Z,72.59
2023-04-07T20:23:27.973Z,73.09
2023-04-07T20:25:54.751Z,71.61
2023-04-07T20:28:22.067Z,72.03
2023-04-07T20:30:48.737Z,71.09
2023-04-07T20:33:15.580Z,71.15
2023-04-07T20:35:42.181Z,69.49
2023-04-07T20:38:08.808Z,70.52
2023-04-07T20:40:36.961Z,71.03
2023-04-07T20:43:04.738Z,71.26
2023-04-07T20:45:32.317Z,71.80
2023-04-07T20:47:58.869Z,72.13
2023-04-07T20:50:25.907Z,72.03
2023-04-07T20:52:53.960Z,72.87
2023-04-07T20:55:21.000Z,73.49
2023-04-07T20:57:47.667Z,72.47
2023-04-07T21:00:15.419Z,72.45
2023-04-07T21:02:43.082Z,71.67
2023-04-07T21:05:09.955Z,71.23
2023-04-07T21:07:36.518Z,70.48
2023-04-07T21:10:04.078Z,70.61
2023-04-07T21:12:30.775Z,70.88
2023-04-07T21:14:57.384Z,72.23
2023-04-07T21:17:23.959Z,72.15
2023-04-07T21:19:51.452Z,72.86
2023-04-07T21:22:18.143Z,73.50
2023-04-07T21:24:44.732Z,72.52
2023-04-07T21:27:12.228Z,71.63
2023-04-07T21:29:41.119Z,72.37
2023-04-07T21:32:08.622Z,71.74
2023-04-07T21:34:35.169Z,71.96
2023-04-07T21:37:01.817Z,71.56
2023-04-07T21:39:28.374Z,73.78
2023-04-07T21:41:54.924Z,72.17
2023-04-07T21:44:21.657Z,73.80
2023-04-07T21:46:48.850Z,73.19
2023-04-07T21:49:18.014Z,72.81
2023-04-07T21:51:44.673Z,71.89
2023-04-07T21:54:12.430Z,72.93
2023-04-07T21:56:38.995Z,73.32
2023-04-07T21:59:05.928Z,73.61
2023-04-07T22:01:32.564Z,72.88
2023-04-07T22:03:59.326Z,72.22
2023-04-07T22:06:26.751Z,71.36
2023-04-07T22:09:01.064Z,72.71
2023-04-07T22:11:28.655Z,73.88
2023-04-07T22:13:55.282Z,74.00
2023-04-07T22:16:21.892Z,74.22
2023-04-07T22:18:48.687Z,74.42
2023-04-07T22:21:15.412Z,74.22
2023-04-07T22:23:41.955Z,73.74
2023-04-07T22:26:08.607Z,72.66
2023-04-07T22:28:35.282Z,73.35
2023-04-07T22:31:02.430Z,73.28
2023-04-07T22:33:29.113Z,72.03
2023-04-07T22:35:55.745Z,71.51
2023-04-07T22:38:23.099Z,71.61
2023-04-07T22:40:49.776Z,72.79
2023-04-07T22:43:16.321Z,73.43
2023-04-07T22:45:42.907Z,72.73
2023-04-07T22:48:09.497Z,75.10
2023-04-07T22:50:36.506Z,75.90
2023-04-07T22:53:03.095Z,75.02
2023-04-07T22:55:29.752Z,75.30
2023-04-07T22:57:56.313Z,76.53
2023-04-07T23:00:22.910Z,77.61
2023-04-07T23:02:49.555Z,76.65
2023-04-07T23:05:16.269Z,76.60
2023-04-07T23:07:43.870Z,76.51
2023-04-07T23:10:10.935Z,75.42
2023-04-07T23:12:37.977Z,75.38
2023-04-07T23:15:05.172Z,75.53
2023-04-07T23:17:32.269Z,74.77
2023-04-07T23:19:58.920Z,74.87
2023-04-07T23:22:25.702Z,75.25
2023-04-07T23:24:52.323Z,75.44
2023-04-07T23:27:18.822Z,74.00
2023-04-07T23:29:45.426Z,74.02
2023-04-07T23:32:12.601Z,73.21
2023-04-07T23:34:40.042Z,73.40
2023-04-07T23:37:06.856Z,73.92
2023-04-07T23:39:34.315Z,75.05
2023-04-07T23:42:00.845Z,74.42
2023-04-07T23:44:27.492Z,74.11
2023-04-07T23:46:54.065Z,73.98
2023-04-07T23:49:20.609Z,74.76
2023-04-07T23:51:47.167Z,74.37
2023-04-07T23:54:13.993Z,73.85
2023-04-07T23:56:40.553Z,72.84
2023-04-07T23:59:07.168Z,73.86
